SKU1603 SCTE-SCCI
Flight info
| Callsign | SKU1603 |
|---|---|
| Flight time | 1h 51m |
| Altitude | 39000 |
| Route | GUTIN4C GUTIN UQ803 NEDAX NEDAX3E |
| Aircraft | A20N/M-SDE2E3FGHIRWXY/LB1 |
Departure
| Time | 2026-04-17 01:57 |
|---|---|
| Airport | El Tepual International Airport (SCTE) |
Arrival
| Time | 2026-04-17 03:49 |
|---|---|
| Airport | President Carlos Ibáñez International Airport (SCCI) |
| Time | Latitude | Longitude | Altitude | Speed | Heading |
|---|---|---|---|---|---|
| 2026-04-17 01:41 | -41.43368 | -73.09748 | 304 ft | 0 kts | 270° |
| 2026-04-17 01:47 | -41.43368 | -73.09732 | 304 ft | 4 kts | 270° |
| 2026-04-17 01:47 | -41.43368 | -73.09696 | 304 ft | 4 kts | 268° |
| 2026-04-17 01:47 | -41.43367 | -73.09660 | 304 ft | 4 kts | 265° |
| 2026-04-17 01:47 | -41.43363 | -73.09625 | 304 ft | 4 kts | 251° |
| 2026-04-17 01:48 | -41.43352 | -73.09599 | 305 ft | 4 kts | 196° |
| 2026-04-17 01:48 | -41.43347 | -73.09597 | 305 ft | 0 kts | 181° |
| 2026-04-17 01:50 | -41.43400 | -73.09598 | 306 ft | 13 kts | 181° |
| 2026-04-17 01:51 | -41.43497 | -73.09602 | 306 ft | 14 kts | 182° |
| 2026-04-17 01:51 | -41.43600 | -73.09607 | 304 ft | 15 kts | 182° |
| 2026-04-17 01:51 | -41.43709 | -73.09611 | 305 ft | 16 kts | 181° |
| 2026-04-17 01:51 | -41.43825 | -73.09616 | 303 ft | 17 kts | 182° |
| 2026-04-17 01:52 | -41.43946 | -73.09624 | 305 ft | 18 kts | 184° |
| 2026-04-17 01:52 | -41.44073 | -73.09615 | 304 ft | 19 kts | 166° |
| 2026-04-17 01:52 | -41.44178 | -73.09613 | 304 ft | 13 kts | 195° |
| 2026-04-17 01:52 | -41.44264 | -73.09633 | 304 ft | 12 kts | 182° |
| 2026-04-17 01:53 | -41.44352 | -73.09637 | 303 ft | 13 kts | 182° |
| 2026-04-17 01:53 | -41.44446 | -73.09641 | 303 ft | 15 kts | 181° |
| 2026-04-17 01:53 | -41.44580 | -73.09647 | 305 ft | 21 kts | 183° |
| 2026-04-17 01:53 | -41.44725 | -73.09654 | 305 ft | 21 kts | 182° |
| 2026-04-17 01:54 | -41.44873 | -73.09657 | 304 ft | 21 kts | 181° |
| 2026-04-17 01:54 | -41.45017 | -73.09658 | 305 ft | 20 kts | 171° |
| 2026-04-17 01:54 | -41.45070 | -73.09544 | 309 ft | 12 kts | 94° |
| 2026-04-17 01:54 | -41.45075 | -73.09472 | 315 ft | 4 kts | 95° |
| 2026-04-17 01:55 | -41.45073 | -73.09439 | 315 ft | 3 kts | 57° |
| 2026-04-17 01:55 | -41.45063 | -73.09437 | 314 ft | 0 kts | 4° |
| 2026-04-17 01:56 | -41.45004 | -73.09433 | 312 ft | 38 kts | 2° |
| 2026-04-17 01:56 | -41.44460 | -73.09421 | 292 ft | 116 kts | 359° |
| 2026-04-17 01:57 | -41.43449 | -73.09387 | 469 ft | 159 kts | 1° |
| 2026-04-17 01:57 | -41.42419 | -73.09287 | 1363 ft | 140 kts | 2° |
| 2026-04-17 01:57 | -41.41468 | -73.08899 | 1947 ft | 161 kts | 43° |
| 2026-04-17 01:57 | -41.40991 | -73.07477 | 2397 ft | 188 kts | 95° |
| 2026-04-17 01:58 | -41.41062 | -73.06886 | 2608 ft | 192 kts | 112° |
| 2026-04-17 01:58 | -41.42779 | -73.05123 | 3814 ft | 203 kts | 166° |
| 2026-04-17 01:58 | -41.44196 | -73.04606 | 4450 ft | 222 kts | 168° |
| 2026-04-17 01:58 | -41.45816 | -73.04008 | 4815 ft | 257 kts | 166° |
| 2026-04-17 01:59 | -41.47585 | -73.03279 | 5539 ft | 274 kts | 164° |
| 2026-04-17 01:59 | -41.49395 | -73.02485 | 6403 ft | 285 kts | 163° |
| 2026-04-17 01:59 | -41.50032 | -73.02199 | 6683 ft | 288 kts | 163° |
| 2026-04-17 02:00 | -41.55121 | -72.99864 | 9241 ft | 302 kts | 164° |
| 2026-04-17 02:00 | -41.57127 | -72.98935 | 10181 ft | 308 kts | 165° |
| 2026-04-17 02:00 | -41.59223 | -72.97969 | 10744 ft | 328 kts | 165° |
| 2026-04-17 02:00 | -41.61406 | -72.96965 | 11402 ft | 340 kts | 167° |
| 2026-04-17 02:01 | -41.63747 | -72.96433 | 12286 ft | 341 kts | 179° |
| 2026-04-17 02:01 | -41.66093 | -72.96097 | 13270 ft | 343 kts | 180° |
| 2026-04-17 02:01 | -41.68493 | -72.95802 | 14214 ft | 347 kts | 180° |
| 2026-04-17 02:01 | -41.70921 | -72.95505 | 15072 ft | 351 kts | 180° |
| 2026-04-17 02:02 | -41.73350 | -72.95202 | 15917 ft | 355 kts | 180° |
| 2026-04-17 02:02 | -41.75843 | -72.94884 | 16797 ft | 359 kts | 180° |
| 2026-04-17 02:02 | -41.78307 | -72.94566 | 17649 ft | 362 kts | 180° |
| 2026-04-17 02:02 | -41.80583 | -72.94271 | 18372 ft | 366 kts | 181° |
| 2026-04-17 02:03 | -41.83149 | -72.93937 | 19057 ft | 371 kts | 181° |
| 2026-04-17 02:03 | -41.85726 | -72.93600 | 19725 ft | 376 kts | 181° |
| 2026-04-17 02:03 | -41.88349 | -72.93257 | 20416 ft | 380 kts | 181° |
| 2026-04-17 02:03 | -41.91004 | -72.92909 | 21099 ft | 385 kts | 181° |
| 2026-04-17 02:04 | -41.93684 | -72.92557 | 21778 ft | 389 kts | 181° |
| 2026-04-17 02:04 | -41.96369 | -72.92204 | 22435 ft | 393 kts | 181° |
| 2026-04-17 02:04 | -41.99113 | -72.91843 | 23092 ft | 397 kts | 181° |
| 2026-04-17 02:04 | -42.01883 | -72.91478 | 23689 ft | 401 kts | 181° |
| 2026-04-17 02:05 | -42.04686 | -72.91109 | 24174 ft | 406 kts | 182° |
| 2026-04-17 02:05 | -42.07489 | -72.90712 | 24634 ft | 413 kts | 179° |
| 2026-04-17 02:05 | -42.10347 | -72.90033 | 25101 ft | 420 kts | 176° |
| 2026-04-17 02:05 | -42.13215 | -72.89225 | 25566 ft | 425 kts | 175° |
| 2026-04-17 02:06 | -42.16119 | -72.88382 | 26001 ft | 430 kts | 175° |
| 2026-04-17 02:06 | -42.19051 | -72.87530 | 26429 ft | 434 kts | 175° |
| 2026-04-17 02:06 | -42.22030 | -72.86665 | 26877 ft | 438 kts | 175° |
| 2026-04-17 02:06 | -42.25038 | -72.85793 | 27293 ft | 442 kts | 175° |
| 2026-04-17 02:07 | -42.28038 | -72.84924 | 27693 ft | 446 kts | 175° |
| 2026-04-17 02:07 | -42.31094 | -72.84039 | 28084 ft | 450 kts | 175° |
| 2026-04-17 02:07 | -42.34184 | -72.83144 | 28478 ft | 454 kts | 175° |
| 2026-04-17 02:07 | -42.37302 | -72.82241 | 28865 ft | 458 kts | 175° |
| 2026-04-17 02:08 | -42.40419 | -72.81547 | 29217 ft | 455 kts | 183° |
| 2026-04-17 02:08 | -42.43554 | -72.81355 | 29594 ft | 452 kts | 188° |
| 2026-04-17 02:08 | -42.46515 | -72.81394 | 29939 ft | 453 kts | 190° |
| 2026-04-17 02:08 | -42.49703 | -72.81566 | 30260 ft | 455 kts | 191° |
| 2026-04-17 02:09 | -42.52847 | -72.81790 | 30570 ft | 457 kts | 192° |
| 2026-04-17 02:09 | -42.56063 | -72.82030 | 30891 ft | 460 kts | 192° |
| 2026-04-17 02:09 | -42.59265 | -72.82257 | 31192 ft | 463 kts | 192° |
| 2026-04-17 02:09 | -42.62480 | -72.82467 | 31537 ft | 465 kts | 191° |
| 2026-04-17 02:10 | -42.65698 | -72.82661 | 31936 ft | 465 kts | 191° |
| 2026-04-17 02:10 | -42.68954 | -72.82847 | 32315 ft | 465 kts | 191° |
| 2026-04-17 02:10 | -42.72172 | -72.83027 | 32692 ft | 466 kts | 192° |
| 2026-04-17 02:10 | -42.75424 | -72.83207 | 33055 ft | 466 kts | 192° |
| 2026-04-17 02:11 | -42.78653 | -72.83386 | 33412 ft | 466 kts | 192° |
| 2026-04-17 02:11 | -42.81878 | -72.83566 | 33763 ft | 467 kts | 192° |
| 2026-04-17 02:11 | -42.85145 | -72.83749 | 34095 ft | 467 kts | 192° |
| 2026-04-17 02:11 | -42.88401 | -72.83932 | 34414 ft | 466 kts | 192° |
| 2026-04-17 02:12 | -42.91611 | -72.84111 | 34763 ft | 465 kts | 192° |
| 2026-04-17 02:12 | -42.94828 | -72.84292 | 35095 ft | 463 kts | 191° |
| 2026-04-17 02:12 | -42.98081 | -72.84476 | 35410 ft | 463 kts | 191° |
| 2026-04-17 02:12 | -43.01269 | -72.84657 | 35712 ft | 462 kts | 191° |
| 2026-04-17 02:13 | -43.04489 | -72.84841 | 36017 ft | 461 kts | 191° |
| 2026-04-17 02:13 | -43.07694 | -72.85024 | 36321 ft | 461 kts | 190° |
| 2026-04-17 02:13 | -43.10869 | -72.85205 | 36586 ft | 460 kts | 190° |
| 2026-04-17 02:13 | -43.14093 | -72.85389 | 36879 ft | 460 kts | 190° |
| 2026-04-17 02:14 | -43.17279 | -72.85570 | 37167 ft | 459 kts | 189° |
| 2026-04-17 02:14 | -43.20482 | -72.85753 | 37458 ft | 458 kts | 189° |
| 2026-04-17 02:14 | -43.23645 | -72.85933 | 37736 ft | 457 kts | 189° |
| 2026-04-17 02:14 | -43.26839 | -72.86115 | 38008 ft | 457 kts | 188° |
| 2026-04-17 02:15 | -43.29989 | -72.86296 | 38258 ft | 456 kts | 188° |
| 2026-04-17 02:15 | -43.33151 | -72.86477 | 38508 ft | 456 kts | 188° |
| 2026-04-17 02:15 | -43.36342 | -72.86661 | 38697 ft | 455 kts | 188° |
| 2026-04-17 02:15 | -43.39495 | -72.86843 | 38870 ft | 456 kts | 188° |
| 2026-04-17 02:16 | -43.42687 | -72.87027 | 38932 ft | 456 kts | 188° |
| 2026-04-17 02:16 | -43.49011 | -72.87390 | 38939 ft | 454 kts | 188° |
| 2026-04-17 02:17 | -43.55314 | -72.87753 | 38930 ft | 454 kts | 188° |
| 2026-04-17 02:17 | -43.61651 | -72.88121 | 38934 ft | 455 kts | 188° |
| 2026-04-17 02:18 | -43.67948 | -72.88485 | 38931 ft | 455 kts | 188° |
| 2026-04-17 02:18 | -43.74323 | -72.88856 | 38931 ft | 455 kts | 188° |
| 2026-04-17 02:19 | -43.80637 | -72.89225 | 38930 ft | 456 kts | 188° |
| 2026-04-17 02:19 | -43.86993 | -72.89594 | 38927 ft | 456 kts | 188° |
| 2026-04-17 02:20 | -43.93304 | -72.89962 | 38925 ft | 457 kts | 188° |
| 2026-04-17 02:20 | -43.99676 | -72.90336 | 38917 ft | 457 kts | 188° |
| 2026-04-17 02:21 | -44.06053 | -72.90709 | 38919 ft | 458 kts | 188° |
| 2026-04-17 02:21 | -44.12434 | -72.91084 | 38923 ft | 459 kts | 188° |
| 2026-04-17 02:22 | -44.18796 | -72.91459 | 38919 ft | 459 kts | 188° |
| 2026-04-17 02:22 | -44.25159 | -72.91834 | 38914 ft | 459 kts | 188° |
| 2026-04-17 02:23 | -44.31562 | -72.92213 | 38911 ft | 460 kts | 188° |
| 2026-04-17 02:23 | -44.37956 | -72.92593 | 38909 ft | 461 kts | 188° |
| 2026-04-17 02:24 | -44.44403 | -72.92976 | 38904 ft | 462 kts | 188° |
| 2026-04-17 02:24 | -44.50806 | -72.93357 | 38900 ft | 462 kts | 188° |
| 2026-04-17 02:25 | -44.57226 | -72.93740 | 38898 ft | 463 kts | 188° |
| 2026-04-17 02:25 | -44.63644 | -72.94124 | 38896 ft | 463 kts | 188° |
| 2026-04-17 02:26 | -44.70082 | -72.94510 | 38892 ft | 464 kts | 187° |
| 2026-04-17 02:26 | -44.76553 | -72.94898 | 38888 ft | 464 kts | 187° |
| 2026-04-17 02:27 | -44.82990 | -72.95286 | 38887 ft | 464 kts | 187° |
| 2026-04-17 02:27 | -44.89444 | -72.95676 | 38881 ft | 465 kts | 187° |
| 2026-04-17 02:28 | -44.94836 | -72.96002 | 38879 ft | 465 kts | 187° |
| 2026-04-17 02:28 | -45.02389 | -72.96460 | 38874 ft | 466 kts | 187° |
| 2026-04-17 02:29 | -45.08850 | -72.96854 | 38872 ft | 466 kts | 188° |
| 2026-04-17 02:29 | -45.15349 | -72.97250 | 38869 ft | 467 kts | 187° |
| 2026-04-17 02:30 | -45.20767 | -72.97580 | 38862 ft | 467 kts | 187° |
| 2026-04-17 02:30 | -45.27235 | -72.97975 | 38863 ft | 467 kts | 187° |
| 2026-04-17 02:31 | -45.33731 | -72.98374 | 38863 ft | 468 kts | 187° |
| 2026-04-17 02:31 | -45.40278 | -72.98777 | 38859 ft | 468 kts | 188° |
| 2026-04-17 02:32 | -45.46748 | -72.99174 | 38851 ft | 468 kts | 188° |
| 2026-04-17 02:32 | -45.53271 | -72.99576 | 38854 ft | 469 kts | 188° |
| 2026-04-17 02:33 | -45.59790 | -72.99982 | 38852 ft | 469 kts | 187° |
| 2026-04-17 02:33 | -45.66326 | -73.00389 | 38856 ft | 470 kts | 188° |
| 2026-04-17 02:34 | -45.72873 | -73.00795 | 38851 ft | 471 kts | 187° |
| 2026-04-17 02:34 | -45.79404 | -73.01200 | 38848 ft | 471 kts | 187° |
| 2026-04-17 02:35 | -45.85942 | -73.01607 | 38851 ft | 472 kts | 187° |
| 2026-04-17 02:35 | -45.95781 | -73.02226 | 38840 ft | 473 kts | 187° |
| 2026-04-17 02:36 | -46.02397 | -73.02642 | 38840 ft | 474 kts | 187° |
| 2026-04-17 02:36 | -46.08955 | -73.03052 | 38835 ft | 474 kts | 187° |
| 2026-04-17 02:37 | -46.15564 | -73.03470 | 38833 ft | 474 kts | 187° |
| 2026-04-17 02:37 | -46.22155 | -73.03888 | 38822 ft | 474 kts | 187° |
| 2026-04-17 02:38 | -46.28774 | -73.04307 | 38818 ft | 475 kts | 187° |
| 2026-04-17 02:38 | -46.35344 | -73.04724 | 38810 ft | 475 kts | 187° |
| 2026-04-17 02:39 | -46.41962 | -73.05145 | 38809 ft | 475 kts | 187° |
| 2026-04-17 02:39 | -46.48580 | -73.05568 | 38801 ft | 475 kts | 187° |
| 2026-04-17 02:40 | -46.55141 | -73.05989 | 38800 ft | 475 kts | 187° |
| 2026-04-17 02:40 | -46.61777 | -73.06414 | 38786 ft | 475 kts | 187° |
| 2026-04-17 02:41 | -46.68375 | -73.06839 | 38783 ft | 475 kts | 187° |
| 2026-04-17 02:41 | -46.75002 | -73.07266 | 38783 ft | 475 kts | 187° |
| 2026-04-17 02:42 | -46.81576 | -73.07690 | 38774 ft | 475 kts | 187° |
| 2026-04-17 02:42 | -46.88186 | -73.08118 | 38770 ft | 475 kts | 187° |
| 2026-04-17 02:43 | -46.94787 | -73.08549 | 38766 ft | 475 kts | 187° |
| 2026-04-17 02:43 | -47.01392 | -73.09066 | 38767 ft | 474 kts | 190° |
| 2026-04-17 02:44 | -47.07923 | -73.10193 | 38761 ft | 471 kts | 193° |
| 2026-04-17 02:44 | -47.14419 | -73.11528 | 38759 ft | 471 kts | 193° |
| 2026-04-17 02:45 | -47.20929 | -73.12836 | 38747 ft | 471 kts | 193° |
| 2026-04-17 02:45 | -47.27439 | -73.14095 | 38751 ft | 472 kts | 192° |
| 2026-04-17 02:46 | -47.33967 | -73.15339 | 38741 ft | 473 kts | 193° |
| 2026-04-17 02:46 | -47.40487 | -73.16582 | 38746 ft | 474 kts | 192° |
| 2026-04-17 02:47 | -47.46991 | -73.17827 | 38736 ft | 474 kts | 193° |
| 2026-04-17 02:47 | -47.53530 | -73.19083 | 38734 ft | 474 kts | 193° |
| 2026-04-17 02:48 | -47.60084 | -73.20345 | 38735 ft | 474 kts | 193° |
| 2026-04-17 02:48 | -47.66634 | -73.21610 | 38730 ft | 474 kts | 193° |
| 2026-04-17 02:49 | -47.73163 | -73.22875 | 38735 ft | 474 kts | 193° |
| 2026-04-17 02:49 | -47.79729 | -73.24149 | 38716 ft | 474 kts | 192° |
| 2026-04-17 02:50 | -47.86249 | -73.25419 | 38733 ft | 475 kts | 193° |
| 2026-04-17 02:50 | -47.92807 | -73.26699 | 38726 ft | 475 kts | 193° |
| 2026-04-17 02:51 | -47.99349 | -73.27978 | 38725 ft | 475 kts | 193° |
| 2026-04-17 02:51 | -48.05924 | -73.29268 | 38721 ft | 475 kts | 193° |
| 2026-04-17 02:52 | -48.12465 | -73.30555 | 38720 ft | 475 kts | 193° |
| 2026-04-17 02:52 | -48.19007 | -73.31845 | 38718 ft | 475 kts | 192° |
| 2026-04-17 02:53 | -48.25553 | -73.33139 | 38715 ft | 476 kts | 192° |
| 2026-04-17 02:53 | -48.32144 | -73.34445 | 38710 ft | 476 kts | 193° |
| 2026-04-17 02:54 | -48.38716 | -73.35750 | 38709 ft | 476 kts | 192° |
| 2026-04-17 02:54 | -48.45267 | -73.37053 | 38700 ft | 476 kts | 192° |
| 2026-04-17 02:55 | -48.51862 | -73.38369 | 38697 ft | 476 kts | 192° |
| 2026-04-17 02:55 | -48.58404 | -73.39677 | 38692 ft | 476 kts | 192° |
| 2026-04-17 02:56 | -48.64974 | -73.40995 | 38692 ft | 477 kts | 192° |
| 2026-04-17 02:56 | -48.71593 | -73.42327 | 38694 ft | 477 kts | 192° |
| 2026-04-17 02:57 | -48.78164 | -73.43651 | 38689 ft | 477 kts | 192° |
| 2026-04-17 02:57 | -48.84708 | -73.44974 | 38680 ft | 477 kts | 193° |
| 2026-04-17 02:58 | -48.91303 | -73.46312 | 38680 ft | 477 kts | 192° |
| 2026-04-17 02:58 | -48.97866 | -73.47647 | 38680 ft | 477 kts | 192° |
| 2026-04-17 02:59 | -49.04446 | -73.48988 | 38673 ft | 478 kts | 192° |
| 2026-04-17 02:59 | -49.11037 | -73.50334 | 38669 ft | 478 kts | 192° |
| 2026-04-17 03:00 | -49.17683 | -73.51696 | 38664 ft | 479 kts | 192° |
| 2026-04-17 03:00 | -49.24290 | -73.53054 | 38666 ft | 479 kts | 192° |
| 2026-04-17 03:01 | -49.30866 | -73.54408 | 38655 ft | 479 kts | 192° |
| 2026-04-17 03:01 | -49.37506 | -73.55780 | 38651 ft | 479 kts | 192° |
| 2026-04-17 03:02 | -49.44087 | -73.57143 | 38647 ft | 479 kts | 192° |
| 2026-04-17 03:02 | -49.50679 | -73.58512 | 38648 ft | 479 kts | 192° |
| 2026-04-17 03:03 | -49.57286 | -73.59889 | 38635 ft | 479 kts | 193° |
| 2026-04-17 03:03 | -49.63912 | -73.61273 | 38626 ft | 479 kts | 192° |
| 2026-04-17 03:04 | -49.70541 | -73.62662 | 38618 ft | 480 kts | 192° |
| 2026-04-17 03:04 | -49.77151 | -73.64050 | 38620 ft | 480 kts | 192° |
| 2026-04-17 03:05 | -49.83790 | -73.65448 | 38618 ft | 481 kts | 192° |
| 2026-04-17 03:05 | -49.90403 | -73.66844 | 38612 ft | 481 kts | 192° |
| 2026-04-17 03:06 | -49.97003 | -73.68242 | 38607 ft | 481 kts | 193° |
| 2026-04-17 03:06 | -50.03662 | -73.69656 | 38605 ft | 481 kts | 193° |
| 2026-04-17 03:07 | -50.10284 | -73.71066 | 38605 ft | 481 kts | 193° |
| 2026-04-17 03:07 | -50.16915 | -73.72482 | 38600 ft | 481 kts | 193° |
| 2026-04-17 03:08 | -50.23528 | -73.73898 | 38595 ft | 482 kts | 193° |
| 2026-04-17 03:08 | -50.30186 | -73.75326 | 38590 ft | 482 kts | 192° |
| 2026-04-17 03:09 | -50.33564 | -73.75593 | 38591 ft | 488 kts | 181° |
| 2026-04-17 03:09 | -50.35808 | -73.75257 | 38582 ft | 491 kts | 173° |
| 2026-04-17 03:09 | -50.40155 | -73.73178 | 38577 ft | 496 kts | 155° |
| 2026-04-17 03:09 | -50.42248 | -73.71545 | 38583 ft | 496 kts | 153° |
| 2026-04-17 03:10 | -50.49246 | -73.65240 | 38573 ft | 498 kts | 149° |
| 2026-04-17 03:10 | -50.55166 | -73.59550 | 38564 ft | 499 kts | 149° |
| 2026-04-17 03:11 | -50.61083 | -73.53898 | 38564 ft | 499 kts | 149° |
| 2026-04-17 03:11 | -50.67060 | -73.48242 | 38558 ft | 499 kts | 149° |
| 2026-04-17 03:12 | -50.72993 | -73.42638 | 38553 ft | 498 kts | 149° |
| 2026-04-17 03:12 | -50.78935 | -73.37011 | 38544 ft | 499 kts | 149° |
| 2026-04-17 03:13 | -50.84874 | -73.31367 | 38538 ft | 500 kts | 149° |
| 2026-04-17 03:13 | -50.90824 | -73.25693 | 38533 ft | 501 kts | 149° |
| 2026-04-17 03:14 | -50.96803 | -73.19975 | 38519 ft | 502 kts | 149° |
| 2026-04-17 03:14 | -51.01800 | -73.15181 | 38519 ft | 502 kts | 149° |
| 2026-04-17 03:15 | -51.07775 | -73.09434 | 38510 ft | 502 kts | 149° |
| 2026-04-17 03:15 | -51.13759 | -73.03661 | 38501 ft | 503 kts | 149° |
| 2026-04-17 03:16 | -51.19738 | -72.97876 | 38499 ft | 504 kts | 148° |
| 2026-04-17 03:16 | -51.25759 | -72.92017 | 38496 ft | 505 kts | 148° |
| 2026-04-17 03:17 | -51.31548 | -72.86354 | 38488 ft | 508 kts | 148° |
| 2026-04-17 03:17 | -51.37607 | -72.80410 | 38200 ft | 511 kts | 148° |
| 2026-04-17 03:18 | -51.40650 | -72.77418 | 37570 ft | 511 kts | 148° |
| 2026-04-17 03:18 | -51.43644 | -72.74470 | 36919 ft | 512 kts | 148° |
| 2026-04-17 03:18 | -51.46675 | -72.71483 | 36622 ft | 507 kts | 148° |
| 2026-04-17 03:18 | -51.49658 | -72.68538 | 36365 ft | 506 kts | 148° |
| 2026-04-17 03:19 | -51.52633 | -72.65595 | 36125 ft | 507 kts | 148° |
| 2026-04-17 03:19 | -51.55651 | -72.62606 | 35886 ft | 507 kts | 148° |
| 2026-04-17 03:19 | -51.58675 | -72.59606 | 35645 ft | 507 kts | 148° |
| 2026-04-17 03:19 | -51.61657 | -72.56643 | 35413 ft | 507 kts | 148° |
| 2026-04-17 03:20 | -51.64649 | -72.53665 | 35177 ft | 508 kts | 148° |
| 2026-04-17 03:20 | -51.67670 | -72.50654 | 34950 ft | 507 kts | 148° |
| 2026-04-17 03:20 | -51.70641 | -72.47687 | 34713 ft | 507 kts | 147° |
| 2026-04-17 03:20 | -51.73613 | -72.44591 | 34476 ft | 507 kts | 142° |
| 2026-04-17 03:21 | -51.76468 | -72.41208 | 34247 ft | 506 kts | 142° |
| 2026-04-17 03:21 | -51.79257 | -72.37842 | 34023 ft | 506 kts | 141° |
| 2026-04-17 03:21 | -51.82100 | -72.34389 | 33797 ft | 506 kts | 141° |
| 2026-04-17 03:21 | -51.84894 | -72.30985 | 33578 ft | 506 kts | 141° |
| 2026-04-17 03:22 | -51.87720 | -72.27536 | 33336 ft | 506 kts | 141° |
| 2026-04-17 03:22 | -51.90513 | -72.24123 | 33064 ft | 505 kts | 141° |
| 2026-04-17 03:22 | -51.93329 | -72.20676 | 32803 ft | 502 kts | 141° |
| 2026-04-17 03:22 | -51.96070 | -72.17316 | 32357 ft | 499 kts | 141° |
| 2026-04-17 03:23 | -51.98866 | -72.13883 | 31777 ft | 497 kts | 141° |
| 2026-04-17 03:23 | -52.01593 | -72.10529 | 31199 ft | 495 kts | 141° |
| 2026-04-17 03:23 | -52.04339 | -72.07147 | 30595 ft | 493 kts | 141° |
| 2026-04-17 03:23 | -52.07048 | -72.03806 | 29986 ft | 491 kts | 140° |
| 2026-04-17 03:24 | -52.09717 | -72.00309 | 29349 ft | 489 kts | 137° |
| 2026-04-17 03:24 | -52.12299 | -71.96690 | 28662 ft | 485 kts | 136° |
| 2026-04-17 03:24 | -52.14815 | -71.93125 | 28054 ft | 481 kts | 136° |
| 2026-04-17 03:24 | -52.17300 | -71.89598 | 27459 ft | 476 kts | 136° |
| 2026-04-17 03:25 | -52.19803 | -71.86048 | 26912 ft | 470 kts | 136° |
| 2026-04-17 03:25 | -52.22218 | -71.82624 | 26600 ft | 460 kts | 136° |
| 2026-04-17 03:25 | -52.24640 | -71.79186 | 26020 ft | 456 kts | 136° |
| 2026-04-17 03:25 | -52.27013 | -71.75812 | 25467 ft | 452 kts | 136° |
| 2026-04-17 03:26 | -52.29365 | -71.72465 | 24982 ft | 448 kts | 136° |
| 2026-04-17 03:26 | -52.31714 | -71.69118 | 24502 ft | 443 kts | 136° |
| 2026-04-17 03:26 | -52.34007 | -71.65846 | 24020 ft | 438 kts | 136° |
| 2026-04-17 03:26 | -52.36278 | -71.62602 | 23550 ft | 433 kts | 137° |
| 2026-04-17 03:27 | -52.38549 | -71.59353 | 23082 ft | 429 kts | 137° |
| 2026-04-17 03:27 | -52.40776 | -71.56163 | 22531 ft | 424 kts | 137° |
| 2026-04-17 03:27 | -52.43004 | -71.52966 | 21938 ft | 420 kts | 137° |
| 2026-04-17 03:27 | -52.45169 | -71.49858 | 21556 ft | 411 kts | 137° |
| 2026-04-17 03:28 | -52.47304 | -71.46786 | 20886 ft | 410 kts | 137° |
| 2026-04-17 03:28 | -52.49440 | -71.43708 | 19927 ft | 417 kts | 137° |
| 2026-04-17 03:28 | -52.51656 | -71.40509 | 18932 ft | 423 kts | 137° |
| 2026-04-17 03:28 | -52.53868 | -71.37314 | 17989 ft | 427 kts | 137° |
| 2026-04-17 03:29 | -52.56110 | -71.34071 | 16948 ft | 430 kts | 138° |
| 2026-04-17 03:29 | -52.58347 | -71.30832 | 15915 ft | 431 kts | 138° |
| 2026-04-17 03:29 | -52.60602 | -71.27561 | 14909 ft | 431 kts | 138° |
| 2026-04-17 03:29 | -52.62838 | -71.24315 | 13931 ft | 430 kts | 138° |
| 2026-04-17 03:30 | -52.65091 | -71.21037 | 12949 ft | 428 kts | 139° |
| 2026-04-17 03:30 | -52.67102 | -71.18103 | 12546 ft | 414 kts | 139° |
| 2026-04-17 03:30 | -52.69156 | -71.15104 | 12275 ft | 396 kts | 139° |
| 2026-04-17 03:30 | -52.71164 | -71.12166 | 11989 ft | 380 kts | 139° |
| 2026-04-17 03:31 | -52.73097 | -71.09335 | 11715 ft | 365 kts | 139° |
| 2026-04-17 03:31 | -52.74957 | -71.06607 | 11438 ft | 352 kts | 139° |
| 2026-04-17 03:31 | -52.76772 | -71.03944 | 11163 ft | 340 kts | 139° |
| 2026-04-17 03:31 | -52.78498 | -71.01407 | 10898 ft | 331 kts | 139° |
| 2026-04-17 03:32 | -52.80213 | -70.98886 | 10639 ft | 328 kts | 139° |
| 2026-04-17 03:32 | -52.81887 | -70.96421 | 10344 ft | 322 kts | 140° |
| 2026-04-17 03:32 | -52.83571 | -70.93955 | 9908 ft | 322 kts | 142° |
| 2026-04-17 03:32 | -52.85412 | -70.91869 | 9486 ft | 316 kts | 152° |
| 2026-04-17 03:33 | -52.87295 | -70.90128 | 9194 ft | 308 kts | 155° |
| 2026-04-17 03:33 | -52.89154 | -70.88477 | 8789 ft | 305 kts | 155° |
| 2026-04-17 03:33 | -52.91030 | -70.86801 | 8440 ft | 303 kts | 153° |
| 2026-04-17 03:33 | -52.92663 | -70.84641 | 8184 ft | 307 kts | 136° |
| 2026-04-17 03:34 | -52.94095 | -70.82047 | 7977 ft | 308 kts | 133° |
| 2026-04-17 03:34 | -52.95491 | -70.79393 | 7755 ft | 307 kts | 132° |
| 2026-04-17 03:34 | -52.96898 | -70.76700 | 7549 ft | 306 kts | 132° |
| 2026-04-17 03:34 | -52.98278 | -70.74050 | 7340 ft | 305 kts | 132° |
| 2026-04-17 03:35 | -52.99668 | -70.71372 | 7122 ft | 304 kts | 132° |
| 2026-04-17 03:35 | -53.01023 | -70.68753 | 6653 ft | 305 kts | 132° |
| 2026-04-17 03:35 | -53.02402 | -70.66078 | 5935 ft | 312 kts | 132° |
| 2026-04-17 03:35 | -53.03825 | -70.63311 | 5152 ft | 318 kts | 132° |
| 2026-04-17 03:36 | -53.06759 | -70.57668 | 3615 ft | 324 kts | 132° |
| 2026-04-17 03:36 | -53.08233 | -70.54868 | 3132 ft | 316 kts | 132° |
| 2026-04-17 03:36 | -53.09634 | -70.52220 | 2997 ft | 297 kts | 131° |
| 2026-04-17 03:37 | -53.10737 | -70.49440 | 2995 ft | 280 kts | 116° |
| 2026-04-17 03:37 | -53.11528 | -70.46532 | 2998 ft | 277 kts | 113° |
| 2026-04-17 03:37 | -53.12283 | -70.43559 | 3006 ft | 279 kts | 112° |
| 2026-04-17 03:37 | -53.13051 | -70.40571 | 3005 ft | 279 kts | 116° |
| 2026-04-17 03:38 | -53.14273 | -70.38162 | 3000 ft | 273 kts | 149° |
| 2026-04-17 03:38 | -53.15966 | -70.37316 | 2993 ft | 245 kts | 187° |
| 2026-04-17 03:38 | -53.17428 | -70.38228 | 3015 ft | 211 kts | 226° |
| 2026-04-17 03:38 | -53.18193 | -70.40101 | 3008 ft | 184 kts | 251° |
| 2026-04-17 03:39 | -53.18552 | -70.42029 | 2999 ft | 162 kts | 261° |
| 2026-04-17 03:39 | -53.18751 | -70.43704 | 2998 ft | 137 kts | 265° |
| 2026-04-17 03:39 | -53.18880 | -70.45173 | 2986 ft | 121 kts | 270° |
| 2026-04-17 03:39 | -53.18813 | -70.46524 | 2999 ft | 118 kts | 284° |
| 2026-04-17 03:40 | -53.18587 | -70.47862 | 3010 ft | 120 kts | 290° |
| 2026-04-17 03:40 | -53.18296 | -70.49180 | 3009 ft | 121 kts | 292° |
| 2026-04-17 03:40 | -53.17983 | -70.50468 | 3003 ft | 121 kts | 294° |
| 2026-04-17 03:40 | -53.17657 | -70.51756 | 3004 ft | 121 kts | 294° |
| 2026-04-17 03:41 | -53.17323 | -70.53058 | 3002 ft | 121 kts | 294° |
| 2026-04-17 03:41 | -53.16992 | -70.54340 | 3000 ft | 121 kts | 294° |
| 2026-04-17 03:41 | -53.16657 | -70.55637 | 3002 ft | 121 kts | 294° |
| 2026-04-17 03:41 | -53.16322 | -70.56930 | 3006 ft | 121 kts | 294° |
| 2026-04-17 03:42 | -53.15989 | -70.58215 | 3003 ft | 122 kts | 294° |
| 2026-04-17 03:42 | -53.15656 | -70.59501 | 2998 ft | 122 kts | 294° |
| 2026-04-17 03:42 | -53.15318 | -70.60808 | 3001 ft | 122 kts | 294° |
| 2026-04-17 03:42 | -53.14984 | -70.62095 | 3002 ft | 123 kts | 294° |
| 2026-04-17 03:43 | -53.14629 | -70.63463 | 2990 ft | 132 kts | 294° |
| 2026-04-17 03:43 | -53.14263 | -70.64875 | 3000 ft | 132 kts | 294° |
| 2026-04-17 03:43 | -53.13810 | -70.66191 | 2998 ft | 132 kts | 307° |
| 2026-04-17 03:43 | -53.13175 | -70.67289 | 2993 ft | 131 kts | 315° |
| 2026-04-17 03:44 | -53.12514 | -70.68279 | 2850 ft | 124 kts | 316° |
| 2026-04-17 03:44 | -53.11874 | -70.69223 | 2565 ft | 122 kts | 317° |
| 2026-04-17 03:44 | -53.11252 | -70.70102 | 2365 ft | 113 kts | 318° |
| 2026-04-17 03:44 | -53.10631 | -70.70909 | 2276 ft | 130 kts | 320° |
| 2026-04-17 03:45 | -53.09802 | -70.71958 | 2396 ft | 156 kts | 321° |
| 2026-04-17 03:45 | -53.09020 | -70.73058 | 2396 ft | 136 kts | 314° |
| 2026-04-17 03:45 | -53.08361 | -70.74091 | 2185 ft | 127 kts | 315° |
| 2026-04-17 03:45 | -53.07736 | -70.75088 | 1899 ft | 124 kts | 314° |
| 2026-04-17 03:46 | -53.07130 | -70.76075 | 1669 ft | 120 kts | 316° |
| 2026-04-17 03:46 | -53.06496 | -70.76990 | 1516 ft | 121 kts | 317° |
| 2026-04-17 03:46 | -53.05872 | -70.77934 | 1336 ft | 122 kts | 316° |
| 2026-04-17 03:46 | -53.05243 | -70.78873 | 1172 ft | 122 kts | 317° |
| 2026-04-17 03:47 | -53.04611 | -70.79817 | 1080 ft | 123 kts | 317° |
| 2026-04-17 03:47 | -53.03953 | -70.80758 | 889 ft | 124 kts | 320° |
| 2026-04-17 03:47 | -53.03293 | -70.81675 | 698 ft | 124 kts | 318° |
| 2026-04-17 03:47 | -53.02652 | -70.82623 | 537 ft | 125 kts | 318° |
| 2026-04-17 03:48 | -53.02005 | -70.83598 | 341 ft | 126 kts | 316° |
| 2026-04-17 03:48 | -53.01347 | -70.84556 | 198 ft | 128 kts | 319° |
| 2026-04-17 03:48 | -53.00814 | -70.85350 | 151 ft | 114 kts | 323° |
| 2026-04-17 03:48 | -53.00395 | -70.85948 | 150 ft | 51 kts | 319° |
| 2026-04-17 03:49 | -53.00214 | -70.86192 | 149 ft | 18 kts | 326° |
| 2026-04-17 03:49 | -53.00129 | -70.86295 | 151 ft | 12 kts | 342° |
| 2026-04-17 03:49 | -53.00102 | -70.86243 | 151 ft | 6 kts | 76° |
| 2026-04-17 03:49 | -53.00098 | -70.86167 | 150 ft | 7 kts | 86° |
| 2026-04-17 03:50 | -53.00096 | -70.85997 | 149 ft | 32 kts | 89° |
| 2026-04-17 03:50 | -53.00089 | -70.85575 | 146 ft | 38 kts | 92° |
| 2026-04-17 03:50 | -53.00096 | -70.85160 | 147 ft | 36 kts | 87° |
| 2026-04-17 03:50 | -53.00103 | -70.84918 | 150 ft | 15 kts | 118° |
| 2026-04-17 03:51 | -53.00183 | -70.84833 | 148 ft | 23 kts | 150° |
| 2026-04-17 03:51 | -53.00319 | -70.84693 | 147 ft | 19 kts | 148° |
| 2026-04-17 03:51 | -53.00379 | -70.84598 | 147 ft | 0 kts | 101° |
| 2026-04-17 03:52 | -53.00383 | -70.84552 | 147 ft | 5 kts | 90° |
| 2026-04-17 03:52 | -53.00383 | -70.84547 | 147 ft | 0 kts | 90° |
| 2026-04-17 03:54 | -53.00383 | -70.84539 | 148 ft | 8 kts | 90° |
| 2026-04-17 03:54 | -53.00376 | -70.84446 | 147 ft | 8 kts | 63° |
| 2026-04-17 03:54 | -53.00397 | -70.84379 | 148 ft | 8 kts | 155° |
| 2026-04-17 03:54 | -53.00443 | -70.84363 | 148 ft | 2 kts | 182° |
| 2026-04-17 03:55 | -53.00445 | -70.84363 | 148 ft | 0 kts | 183° |